createdAt,value
2019-03-31T00:01:14.519Z,87.70
2019-03-31T00:07:17.421Z,87.60
2019-03-31T00:13:20.270Z,88.40
2019-03-31T00:19:24.441Z,88.50
2019-03-31T00:25:28.759Z,88.10
2019-03-31T00:31:31.697Z,88.20
2019-03-31T00:37:35.635Z,88.30
2019-03-31T00:43:38.583Z,88.00
2019-03-31T00:49:41.771Z,89.60
2019-03-31T00:55:45.495Z,88.90
2019-03-31T01:01:50.371Z,89.70
2019-03-31T01:07:53.361Z,90.10
2019-03-31T01:13:58.202Z,90.10
2019-03-31T01:20:01.195Z,90.70
2019-03-31T01:26:04.825Z,90.40
2019-03-31T01:32:10.590Z,91.00
2019-03-31T01:38:13.676Z,91.10
2019-03-31T01:44:17.070Z,91.30
2019-03-31T01:50:22.163Z,91.20
2019-03-31T01:56:26.904Z,91.60
2019-03-31T02:02:30.517Z,91.70
2019-03-31T02:08:34.329Z,91.50
2019-03-31T02:14:37.531Z,91.60
2019-03-31T02:20:43.147Z,91.90
2019-03-31T02:26:46.848Z,91.70
2019-03-31T02:32:52.241Z,91.80
2019-03-31T02:38:57.717Z,91.80
2019-03-31T02:45:02.485Z,92.20
2019-03-31T02:51:12.627Z,91.90
2019-03-31T02:57:17.430Z,92.40
2019-03-31T03:03:25.982Z,92.30
2019-03-31T03:09:39.842Z,92.10
2019-03-31T03:16:23.438Z,92.30
2019-03-31T03:22:28.338Z,92.10
2019-03-31T03:28:53.369Z,92.40
2019-03-31T03:34:59.126Z,92.30
2019-03-31T03:41:05.659Z,92.40
2019-03-31T03:47:08.591Z,93.00
2019-03-31T03:53:14.233Z,92.70
2019-03-31T03:59:20.960Z,92.60
2019-03-31T04:05:28.504Z,92.90
2019-03-31T04:11:31.518Z,92.70
2019-03-31T04:17:35.138Z,93.10
2019-03-31T04:23:40.339Z,96.00
2019-03-31T04:29:46.074Z,92.80
2019-03-31T04:35:49.523Z,93.10
2019-03-31T04:41:56.373Z,93.10
2019-03-31T04:48:02.564Z,93.10
2019-03-31T04:54:10.750Z,93.30
2019-03-31T05:00:15.300Z,93.20
2019-03-31T05:06:21.187Z,93.10
2019-03-31T05:12:27.114Z,92.80
2019-03-31T05:18:31.645Z,92.80
2019-03-31T05:24:43.072Z,92.70
2019-03-31T05:30:41.714Z,92.20
2019-03-31T05:36:45.463Z,92.00
2019-03-31T05:42:50.530Z,91.80
2019-03-31T05:48:53.535Z,91.20
2019-03-31T05:54:57.810Z,90.10
2019-03-31T06:01:01.312Z,86.40
2019-03-31T06:07:04.606Z,81.30
2019-03-31T06:13:08.035Z,75.40
2019-03-31T06:19:13.410Z,69.80
2019-03-31T06:25:19.320Z,64.40
2019-03-31T06:31:22.670Z,61.70
2019-03-31T06:37:26.115Z,57.10
2019-03-31T06:43:29.654Z,55.30
2019-03-31T06:49:32.650Z,53.10
2019-03-31T06:55:39.953Z,51.10
2019-03-31T07:01:43.640Z,49.20
2019-03-31T07:07:51.250Z,46.60
2019-03-31T07:13:54.375Z,46.10
2019-03-31T07:19:57.501Z,41.90
2019-03-31T07:26:16.458Z,42.90
2019-03-31T07:32:20.919Z,41.60
2019-03-31T07:38:38.784Z,43.50
2019-03-31T07:44:34.296Z,40.80
2019-03-31T07:50:37.554Z,38.90
2019-03-31T07:56:40.926Z,40.50
2019-03-31T08:02:44.764Z,39.30
2019-03-31T08:08:53.178Z,36.40
2019-03-31T08:14:55.308Z,37.50
2019-03-31T08:20:58.312Z,35.30
2019-03-31T08:27:01.172Z,36.40
2019-03-31T08:33:04.091Z,35.20
2019-03-31T08:39:07.805Z,36.40
2019-03-31T08:45:11.233Z,36.20
2019-03-31T08:51:15.069Z,34.70
2019-03-31T08:57:17.957Z,35.60
2019-03-31T09:03:22.123Z,35.60
2019-03-31T09:09:29.650Z,37.80
2019-03-31T09:15:32.787Z,36.10
2019-03-31T09:21:40.778Z,38.50
2019-03-31T09:27:47.770Z,38.30
2019-03-31T09:33:54.962Z,37.50
2019-03-31T09:39:58.791Z,39.00
2019-03-31T09:46:07.209Z,38.70
2019-03-31T09:52:15.932Z,37.30
2019-03-31T09:58:21.205Z,38.50
2019-03-31T10:04:34.561Z,39.70
2019-03-31T10:10:48.456Z,39.30
2019-03-31T10:16:59.243Z,39.90
2019-03-31T10:23:28.483Z,41.60
2019-03-31T10:29:41.167Z,40.40
2019-03-31T10:35:48.273Z,41.20
2019-03-31T10:42:08.172Z,40.60
2019-03-31T10:48:20.675Z,40.70
2019-03-31T10:54:25.957Z,42.20
2019-03-31T11:00:36.737Z,43.10
2019-03-31T11:06:58.056Z,41.60
2019-03-31T11:12:56.720Z,41.30
2019-03-31T11:19:04.638Z,43.40
2019-03-31T11:25:20.633Z,42.10
2019-03-31T11:31:28.653Z,40.70
2019-03-31T11:37:44.002Z,40.40
2019-03-31T11:43:58.308Z,41.20
2019-03-31T11:50:23.231Z,39.40
2019-03-31T11:56:27.402Z,40.70
2019-03-31T12:02:38.450Z,39.30
2019-03-31T12:08:46.942Z,40.00
2019-03-31T12:15:00.523Z,38.20
2019-03-31T12:21:22.647Z,38.90
2019-03-31T12:27:30.074Z,38.70
2019-03-31T12:33:48.370Z,37.90
2019-03-31T12:40:00.756Z,38.00
2019-03-31T12:46:07.422Z,38.50
2019-03-31T12:52:19.474Z,37.50
2019-03-31T12:58:34.718Z,35.90
2019-03-31T13:04:39.082Z,36.50
2019-03-31T13:10:42.022Z,36.20
2019-03-31T13:17:08.969Z,36.00
2019-03-31T13:23:22.436Z,35.50
2019-03-31T13:29:26.388Z,36.20
2019-03-31T13:35:47.841Z,35.20
2019-03-31T13:41:53.361Z,34.90
2019-03-31T13:48:05.885Z,35.60
2019-03-31T13:54:22.501Z,36.20
2019-03-31T14:01:02.801Z,34.60
2019-03-31T14:07:30.937Z,33.40
2019-03-31T14:20:33.504Z,33.60
2019-03-31T14:26:49.640Z,33.70
2019-03-31T14:33:09.337Z,33.60
2019-03-31T14:39:34.248Z,32.90
2019-03-31T14:45:58.226Z,33.10
2019-03-31T14:52:27.156Z,34.80
2019-03-31T14:58:50.073Z,35.10
2019-03-31T15:11:29.100Z,31.40
2019-03-31T15:17:58.277Z,31.10
2019-03-31T15:24:06.633Z,29.90
2019-03-31T15:30:52.473Z,30.60
2019-03-31T15:37:20.099Z,30.40
2019-03-31T15:43:32.366Z,32.00
2019-03-31T15:49:43.438Z,30.10
2019-03-31T15:56:01.888Z,31.30
2019-03-31T16:02:08.268Z,33.30
2019-03-31T16:08:15.899Z,33.60
2019-03-31T16:14:18.912Z,31.70
2019-03-31T16:20:23.443Z,33.50
2019-03-31T16:26:27.854Z,32.80
2019-03-31T16:32:32.021Z,33.10
2019-03-31T16:38:44.627Z,34.20
2019-03-31T16:44:58.196Z,35.40
2019-03-31T16:50:59.035Z,36.50
2019-03-31T16:57:02.750Z,36.50
2019-03-31T17:03:18.323Z,38.00
2019-03-31T17:09:22.206Z,38.70
2019-03-31T17:15:25.236Z,39.30
2019-03-31T17:21:30.142Z,39.70
2019-03-31T17:27:36.149Z,39.80
2019-03-31T17:33:45.911Z,41.00
2019-03-31T17:40:05.461Z,42.50
2019-03-31T17:46:02.649Z,43.50
2019-03-31T17:52:13.550Z,46.00
2019-03-31T17:58:22.661Z,48.80
2019-03-31T18:04:28.966Z,50.90
2019-03-31T18:10:33.846Z,52.70
2019-03-31T18:16:36.341Z,54.40
2019-03-31T18:22:41.615Z,55.80
2019-03-31T18:28:45.251Z,57.00
2019-03-31T18:34:50.574Z,58.60
2019-03-31T18:41:07.229Z,59.20
2019-03-31T18:47:13.448Z,59.60
2019-03-31T18:53:31.965Z,60.40
2019-03-31T18:59:39.281Z,61.30
2019-03-31T19:05:55.862Z,62.90
2019-03-31T19:12:08.262Z,63.20
2019-03-31T19:18:27.657Z,63.50
2019-03-31T19:24:34.808Z,64.10
2019-03-31T19:30:57.420Z,63.90
2019-03-31T19:37:05.527Z,64.40
2019-03-31T19:43:17.757Z,63.60
2019-03-31T19:49:30.679Z,62.20
2019-03-31T19:55:35.162Z,60.90
2019-03-31T20:01:46.420Z,59.00
2019-03-31T20:07:59.582Z,58.60
2019-03-31T20:14:04.053Z,57.10
2019-03-31T20:20:17.153Z,56.50
2019-03-31T20:26:21.325Z,56.90
2019-03-31T20:32:28.512Z,57.90
2019-03-31T20:38:44.563Z,59.20
2019-03-31T20:44:46.968Z,60.40
2019-03-31T20:50:49.360Z,62.10
2019-03-31T20:56:51.857Z,62.70
2019-03-31T21:02:54.678Z,63.80
2019-03-31T21:08:58.406Z,64.20
2019-03-31T21:15:00.756Z,66.10
2019-03-31T21:21:03.245Z,66.40
2019-03-31T21:27:08.140Z,67.00
2019-03-31T21:33:12.667Z,67.60
2019-03-31T21:39:17.393Z,68.50
2019-03-31T21:45:27.646Z,70.30
2019-03-31T21:51:36.559Z,70.10
2019-03-31T21:57:51.791Z,70.90
2019-03-31T22:04:02.848Z,71.70
2019-03-31T22:10:06.100Z,72.50
2019-03-31T22:16:16.906Z,72.60
2019-03-31T22:22:16.186Z,72.60
2019-03-31T22:28:24.837Z,72.50
2019-03-31T22:34:32.547Z,72.40
2019-03-31T22:40:42.888Z,71.80
2019-03-31T22:47:12.352Z,71.20
2019-03-31T22:53:24.817Z,71.40
2019-03-31T22:59:27.525Z,72.20
2019-03-31T23:05:32.935Z,72.70
2019-03-31T23:11:36.781Z,73.30
2019-03-31T23:17:39.791Z,73.30
2019-03-31T23:23:43.838Z,73.70
2019-03-31T23:29:47.153Z,73.50
2019-03-31T23:35:50.051Z,74.10
2019-03-31T23:41:52.616Z,73.90
2019-03-31T23:47:57.122Z,74.80
2019-03-31T23:54:04.657Z,75.40
